Time;durP1;ratioP1;P1;durP2;ratioP2;P2;SDS_P1;SDS_P2;PMS_P1;PMS_P2;Temp;Humidity;BMP_temperature;BMP_pressure;BME280_temperature;BME280_humidity;BME280_pressure;Samples;Min_cycle;Max_cycle;Signal;HPM_P1;HPM_P2
2022/12/05 00:00:59;;;;;;;39.30;20.67;;;4.90;99.90;;;;;;5079832;28;20483;-64
2022/12/05 00:03:24;;;;;;;35.22;19.55;;;4.90;99.90;;;;;;5062287;28;20036;-64
2022/12/05 00:05:50;;;;;;;39.58;19.55;;;4.90;99.90;;;;;;5079633;28;20398;-64
2022/12/05 00:08:16;;;;;;;36.97;20.48;;;4.90;99.90;;;;;;5080773;28;20051;-64
2022/12/05 00:10:42;;;;;;;36.95;19.95;;;4.90;99.90;;;;;;5074701;28;20048;-64
2022/12/05 00:13:08;;;;;;;35.08;19.60;;;4.90;99.90;;;;;;5060115;28;20133;-64
2022/12/05 00:15:39;;;;;;;35.22;19.15;;;4.90;99.90;;;;;;5080055;28;20044;-64
2022/12/05 00:18:05;;;;;;;36.58;18.75;;;4.90;99.90;;;;;;5082816;28;20044;-64
2022/12/05 00:20:31;;;;;;;42.08;20.75;;;4.90;99.90;;;;;;5079923;28;20772;-64
2022/12/05 00:22:57;;;;;;;30.58;17.10;;;4.80;99.90;;;;;;5060154;28;20061;-64
2022/12/05 00:25:22;;;;;;;34.55;19.02;;;4.90;99.90;;;;;;5078942;28;20050;-64
2022/12/05 00:27:48;;;;;;;30.05;16.10;;;5.00;99.90;;;;;;5078956;28;20042;-64
2022/12/05 00:30:14;;;;;;;33.97;16.75;;;4.90;99.90;;;;;;5081061;28;20379;-64
2022/12/05 00:32:39;;;;;;;33.55;17.83;;;5.00;99.90;;;;;;5075586;28;20068;-65
2022/12/05 00:35:05;;;;;;;30.30;18.13;;;5.00;99.90;;;;;;5060109;28;20043;-63
2022/12/05 00:37:31;;;;;;;31.23;16.83;;;5.00;99.90;;;;;;5060937;28;20110;-64
2022/12/05 00:39:56;;;;;;;28.85;15.80;;;4.90;99.90;;;;;;5084225;28;20474;-64
2022/12/05 00:42:22;;;;;;;33.80;17.60;;;5.00;99.90;;;;;;5075716;28;20109;-64
2022/12/05 00:44:50;;;;;;;30.30;17.30;;;4.90;99.90;;;;;;5083449;28;20041;-63
2022/12/05 00:47:16;;;;;;;33.30;17.90;;;4.90;99.90;;;;;;5058008;28;20055;-63
2022/12/05 00:49:42;;;;;;;30.30;16.98;;;5.00;99.90;;;;;;5059029;28;20037;-63
2022/12/05 00:52:08;;;;;;;29.77;16.80;;;5.00;99.90;;;;;;5079793;28;20320;-63
2022/12/05 00:54:34;;;;;;;31.02;15.75;;;5.00;99.90;;;;;;5058682;28;20040;-64
2022/12/05 00:56:59;;;;;;;28.27;16.23;;;4.90;99.90;;;;;;5074636;28;20040;-64
2022/12/05 00:59:25;;;;;;;27.98;14.27;;;5.00;99.90;;;;;;5059010;28;20411;-63
2022/12/05 01:01:51;;;;;;;29.08;15.70;;;5.00;99.90;;;;;;5078678;28;20071;-64
2022/12/05 01:04:22;;;;;;;28.65;15.43;;;5.00;99.90;;;;;;5078418;28;20060;-63
2022/12/05 01:06:50;;;;;;;27.80;16.65;;;5.10;99.90;;;;;;5078674;28;20048;-63
2022/12/05 01:09:18;;;;;;;32.67;18.58;;;5.10;99.90;;;;;;5059893;28;20051;-64
2022/12/05 01:11:44;;;;;;;30.73;18.35;;;5.20;99.90;;;;;;5075743;28;20044;-64
2022/12/05 01:14:12;;;;;;;31.15;18.55;;;5.20;99.90;;;;;;5076240;28;20043;-64
2022/12/05 01:16:39;;;;;;;34.80;18.83;;;5.20;99.90;;;;;;5078004;28;20755;-64
2022/12/05 01:19:08;;;;;;;32.75;19.48;;;5.30;99.90;;;;;;5079313;28;20044;-64
2022/12/05 01:21:34;;;;;;;34.95;18.85;;;5.30;99.90;;;;;;5078586;28;20047;-64
2022/12/05 01:23:59;;;;;;;34.72;18.70;;;5.20;99.90;;;;;;5079351;28;20051;-64
2022/12/05 01:26:25;;;;;;;31.40;18.33;;;5.30;99.90;;;;;;5080000;28;20044;-65
2022/12/05 01:28:51;;;;;;;36.88;20.80;;;5.30;99.90;;;;;;5075298;28;20216;-64
2022/12/05 01:31:26;;;;;;;34.38;19.15;;;5.20;99.90;;;;;;5080966;28;20040;-64
2022/12/05 01:33:54;;;;;;;40.88;20.13;;;5.20;99.90;;;;;;5077043;28;20591;-65
2022/12/05 01:36:21;;;;;;;35.83;19.70;;;5.20;99.90;;;;;;5075101;28;20047;-65
2022/12/05 01:38:47;;;;;;;32.67;18.65;;;5.20;99.90;;;;;;5072603;28;20070;-65
2022/12/05 01:41:16;;;;;;;31.17;17.70;;;5.20;99.90;;;;;;5076711;28;20041;-65
2022/12/05 01:44:01;;;;;;;32.90;19.08;;;5.20;99.90;;;;;;5062917;28;20138;-65
2022/12/05 01:46:30;;;;;;;29.63;17.17;;;5.30;99.90;;;;;;5076485;28;20495;-65
2022/12/05 01:49:09;;;;;;;29.10;16.90;;;5.20;99.90;;;;;;5076313;28;20066;-65
2022/12/05 01:51:38;;;;;;;30.60;16.42;;;5.30;99.90;;;;;;5076821;28;20040;-65
2022/12/05 01:54:04;;;;;;;32.40;16.70;;;5.30;99.90;;;;;;5075419;28;20044;-64
2022/12/05 01:56:31;;;;;;;33.22;17.45;;;5.30;99.90;;;;;;5061910;28;20505;-65
2022/12/05 01:59:00;;;;;;;32.28;17.52;;;5.30;99.90;;;;;;5074872;28;20040;-65
2022/12/05 02:01:26;;;;;;;32.40;18.15;;;5.30;99.90;;;;;;5057617;28;20153;-65
2022/12/05 02:03:55;;;;;;;33.10;18.10;;;5.30;99.90;;;;;;5073126;28;20062;-65
2022/12/05 02:06:22;;;;;;;30.35;18.02;;;5.40;99.90;;;;;;5057487;28;20792;-65
2022/12/05 02:08:50;;;;;;;31.90;17.17;;;5.40;99.90;;;;;;5074580;28;20048;-65
2022/12/05 02:11:15;;;;;;;33.35;18.52;;;5.40;99.90;;;;;;5060467;28;20036;-65
2022/12/05 02:13:50;;;;;;;33.88;17.77;;;5.30;99.90;;;;;;5076965;28;20456;-64
2022/12/05 02:16:48;;;;;;;33.45;18.05;;;5.40;99.90;;;;;;5076235;28;20052;-65
2022/12/05 02:20:04;;;;;;;32.28;16.83;;;5.50;99.90;;;;;;5069414;28;20048;-64
2022/12/05 02:22:54;;;;;;;29.17;16.33;;;5.50;99.90;;;;;;4974310;28;20092;-64
2022/12/05 02:25:35;;;;;;;29.85;14.95;;;5.50;99.90;;;;;;5063260;28;20043;-64
2022/12/05 02:29:01;;;;;;;29.30;15.98;;;5.40;99.90;;;;;;5074751;28;20044;-66
2022/12/05 02:31:27;;;;;;;29.92;14.63;;;5.50;99.90;;;;;;5019360;28;20040;-64
2022/12/05 02:34:04;;;;;;;26.33;14.45;;;5.50;99.90;;;;;;5063594;28;20051;-64
2022/12/05 02:36:55;;;;;;;25.00;13.57;;;5.40;99.90;;;;;;5068815;28;20648;-64
2022/12/05 02:39:50;;;;;;;22.83;13.05;;;5.60;99.90;;;;;;5074887;28;20056;-64
2022/12/05 02:42:44;;;;;;;24.55;12.48;;;5.50;99.90;;;;;;5070458;28;20046;-64
2022/12/05 02:45:14;;;;;;;20.80;11.88;;;5.50;99.90;;;;;;5060113;28;20072;-64
2022/12/05 02:47:45;;;;;;;21.92;11.90;;;5.60;99.90;;;;;;5071667;28;20424;-64
2022/12/05 02:50:15;;;;;;;18.30;11.70;;;5.50;99.90;;;;;;5052410;28;20045;-64
2022/12/05 02:52:44;;;;;;;20.85;11.93;;;5.60;99.90;;;;;;5057269;28;20055;-65
2022/12/05 02:55:11;;;;;;;16.95;9.40;;;5.50;99.90;;;;;;5039205;28;20138;-64
2022/12/05 02:57:38;;;;;;;22.48;11.60;;;5.60;99.90;;;;;;5053719;28;20385;-65
2022/12/05 03:00:05;;;;;;;17.92;10.57;;;5.60;99.90;;;;;;5035190;28;20241;-65
2022/12/05 03:02:33;;;;;;;18.92;9.73;;;5.60;99.90;;;;;;5059785;28;20060;-64
2022/12/05 03:05:35;;;;;;;16.42;9.00;;;5.60;99.90;;;;;;5052269;28;20059;-64
2022/12/05 03:08:03;;;;;;;12.65;8.45;;;5.60;99.90;;;;;;5052798;28;20048;-64
2022/12/05 03:10:30;;;;;;;17.70;9.32;;;5.60;99.90;;;;;;5054995;28;20068;-64
2022/12/05 03:13:02;;;;;;;13.55;8.27;;;5.60;99.90;;;;;;5055154;28;20087;-64
2022/12/05 03:15:35;;;;;;;12.50;8.30;;;5.60;99.90;;;;;;5058266;28;20118;-64
2022/12/05 03:18:07;;;;;;;13.60;7.70;;;5.70;99.90;;;;;;5046939;28;20125;-64
2022/12/05 03:20:55;;;;;;;13.30;8.05;;;5.60;99.90;;;;;;5056540;28;20868;-64
2022/12/05 03:23:29;;;;;;;13.88;7.85;;;5.70;99.90;;;;;;5059291;28;20047;-64
2022/12/05 03:26:14;;;;;;;16.55;7.57;;;5.70;99.90;;;;;;5057715;28;20032;-64
2022/12/05 03:28:49;;;;;;;13.25;7.55;;;5.80;99.90;;;;;;5039413;28;20557;-64
2022/12/05 03:31:19;;;;;;;15.60;7.55;;;5.70;99.90;;;;;;5053360;28;20056;-64
2022/12/05 03:33:49;;;;;;;15.60;8.18;;;5.80;99.90;;;;;;5052531;28;20095;-64
2022/12/05 03:36:21;;;;;;;14.65;7.93;;;5.70;99.90;;;;;;5059164;28;20127;-64
2022/12/05 03:38:58;;;;;;;13.50;7.05;;;5.70;99.90;;;;;;5044225;28;20044;-64
2022/12/05 03:41:33;;;;;;;13.38;6.82;;;5.80;99.90;;;;;;5035523;28;20364;-64
2022/12/05 03:44:23;;;;;;;11.45;6.75;;;5.70;99.90;;;;;;5056644;28;20053;-64
2022/12/05 03:47:05;;;;;;;11.40;6.43;;;5.70;99.90;;;;;;5038706;28;20037;-65
2022/12/05 03:49:40;;;;;;;16.45;8.45;;;5.80;99.90;;;;;;5035025;28;20048;-64
2022/12/05 03:52:12;;;;;;;15.90;7.78;;;5.80;99.90;;;;;;5052690;28;20048;-64
2022/12/05 03:54:45;;;;;;;13.43;6.80;;;5.70;99.90;;;;;;5054163;28;20044;-64
2022/12/05 03:57:22;;;;;;;;;;;5.80;99.90;;;;;;5038067;28;20063;-64
2022/12/05 04:00:03;;;;;;;12.38;6.93;;;5.70;99.90;;;;;;5051896;28;19920;-64
2022/12/05 04:03:16;;;;;;;14.43;6.72;;;5.80;99.90;;;;;;5053629;28;20101;-64
2022/12/05 04:05:57;;;;;;;12.93;6.90;;;5.80;99.90;;;;;;5045083;28;20045;-64
2022/12/05 04:08:37;;;;;;;12.00;6.25;;;5.80;99.90;;;;;;5024164;28;20048;-64
2022/12/05 04:11:14;;;;;;;18.77;7.97;;;5.80;99.90;;;;;;5056371;28;20143;-64
2022/12/05 04:13:42;;;;;;;11.95;7.60;;;5.90;99.90;;;;;;5050555;28;20048;-64
2022/12/05 04:19:22;;;;;;;19.98;7.40;;;5.80;99.90;;;;;;5055407;28;20036;-64
2022/12/05 04:21:52;;;;;;;15.30;8.70;;;5.90;99.90;;;;;;5055066;28;20056;-64
2022/12/05 04:27:28;;;;;;;15.95;7.70;;;5.90;99.90;;;;;;5050473;28;20119;-64
2022/12/05 04:30:00;;;;;;;15.63;7.75;;;5.80;99.90;;;;;;5036792;28;20053;-64
2022/12/05 04:32:29;;;;;;;16.85;8.27;;;5.90;99.90;;;;;;5034640;28;20147;-64
2022/12/05 04:35:00;;;;;;;20.20;8.65;;;5.80;99.90;;;;;;5053139;28;20036;-63
2022/12/05 04:37:29;;;;;;;13.52;7.32;;;5.80;99.90;;;;;;5056517;28;20545;-64
2022/12/05 04:40:05;;;;;;;17.98;8.75;;;5.80;99.90;;;;;;5054546;28;20495;-64
2022/12/05 04:42:33;;;;;;;20.13;8.63;;;5.90;99.90;;;;;;5053341;28;20052;-64
2022/12/05 04:45:04;;;;;;;21.85;9.70;;;5.80;99.90;;;;;;5056100;28;20181;-64
2022/12/05 04:47:35;;;;;;;17.65;9.57;;;5.90;99.90;;;;;;5061407;28;20052;-63
2022/12/05 04:50:02;;;;;;;20.10;9.82;;;5.80;99.90;;;;;;5078194;28;20079;-63
2022/12/05 04:52:29;;;;;;;17.90;10.32;;;5.80;99.90;;;;;;5076479;28;20131;-64
2022/12/05 04:55:12;;;;;;;18.25;9.63;;;5.80;99.90;;;;;;5076527;28;20115;-64
2022/12/05 04:58:02;;;;;;;18.75;9.68;;;5.80;99.90;;;;;;5060145;28;20032;-64
2022/12/05 05:00:31;;;;;;;18.30;10.02;;;5.80;99.90;;;;;;5058991;28;20292;-64
2022/12/05 05:03:09;;;;;;;17.08;9.32;;;5.80;99.90;;;;;;5059162;28;20376;-63
2022/12/05 05:05:37;;;;;;;18.80;10.10;;;5.80;99.90;;;;;;5059339;28;20662;-64
2022/12/05 05:08:03;;;;;;;25.20;11.95;;;5.80;99.90;;;;;;5076793;28;20040;-64
2022/12/05 05:10:38;;;;;;;20.55;10.20;;;5.70;99.90;;;;;;5078387;28;20075;-65
2022/12/05 05:13:04;;;;;;;21.13;11.00;;;5.70;99.90;;;;;;5060034;28;20132;-65
2022/12/05 05:15:29;;;;;;;17.73;9.98;;;5.80;99.90;;;;;;5073259;28;20451;-64
2022/12/05 05:17:55;;;;;;;19.60;10.15;;;5.70;99.90;;;;;;5078971;28;20471;-64
2022/12/05 05:20:23;;;;;;;24.85;10.23;;;5.80;99.90;;;;;;5083089;28;20040;-64
2022/12/05 05:22:50;;;;;;;20.42;9.55;;;5.80;99.90;;;;;;5083889;28;20040;-64
2022/12/05 05:25:16;;;;;;;22.77;10.90;;;5.70;99.90;;;;;;5083383;28;20105;-64
2022/12/05 05:27:42;;;;;;;17.83;10.00;;;5.90;99.90;;;;;;5080510;28;20079;-64
2022/12/05 05:30:08;;;;;;;20.38;10.13;;;5.90;99.90;;;;;;5078426;28;20060;-64
2022/12/05 05:32:34;;;;;;;20.52;10.50;;;5.70;99.90;;;;;;5066410;28;20533;-64
2022/12/05 05:35:00;;;;;;;19.80;10.02;;;5.80;99.90;;;;;;5081280;28;20048;-64
2022/12/05 05:37:25;;;;;;;17.77;9.52;;;5.80;99.90;;;;;;5079710;28;20055;-64
2022/12/05 05:39:51;;;;;;;20.25;10.27;;;5.80;99.90;;;;;;5083246;28;20049;-64
2022/12/05 05:42:17;;;;;;;18.38;9.60;;;5.90;99.90;;;;;;5081515;28;20071;-64
2022/12/05 05:44:42;;;;;;;19.38;9.68;;;5.90;99.90;;;;;;5063895;28;20150;-64
2022/12/05 05:47:08;;;;;;;20.25;10.93;;;5.90;99.90;;;;;;5073026;28;20052;-65
2022/12/05 05:49:34;;;;;;;27.20;10.65;;;5.90;99.90;;;;;;5078540;28;20071;-64
2022/12/05 05:51:59;;;;;;;20.48;9.23;;;5.80;99.90;;;;;;5070383;28;20123;-64
2022/12/05 05:54:25;;;;;;;19.48;10.25;;;5.90;99.90;;;;;;5068370;28;20040;-64
2022/12/05 05:56:50;;;;;;;19.02;9.27;;;5.90;99.90;;;;;;5071183;28;20501;-64
2022/12/05 05:59:16;;;;;;;19.23;8.77;;;5.90;99.90;;;;;;5058091;28;20048;-64
2022/12/05 06:01:42;;;;;;;19.70;9.43;;;5.80;99.90;;;;;;5070499;28;20090;-64
2022/12/05 06:04:07;;;;;;;17.52;8.50;;;5.90;99.90;;;;;;5080161;28;20039;-64
2022/12/05 06:06:33;;;;;;;15.80;8.60;;;5.80;99.90;;;;;;5074814;28;20410;-64
2022/12/05 06:08:59;;;;;;;17.50;9.02;;;6.00;99.90;;;;;;5076912;28;20650;-64
2022/12/05 06:11:26;;;;;;;14.32;8.32;;;5.90;99.90;;;;;;5078837;28;20043;-64
2022/12/05 06:13:54;;;;;;;14.00;8.38;;;5.90;99.90;;;;;;5079950;28;20047;-64
2022/12/05 06:16:20;;;;;;;13.98;7.43;;;6.00;99.90;;;;;;5061231;28;20526;-64
2022/12/05 06:18:46;;;;;;;17.58;8.32;;;5.80;99.90;;;;;;5076365;28;20072;-65
2022/12/05 06:21:11;;;;;;;14.15;7.63;;;5.80;99.90;;;;;;5078561;28;20529;-65
2022/12/05 06:23:38;;;;;;;17.63;7.90;;;5.90;99.90;;;;;;5079730;28;20177;-65
2022/12/05 06:26:06;;;;;;;16.17;7.85;;;6.00;99.90;;;;;;5077279;28;20570;-65
2022/12/05 06:28:32;;;;;;;15.30;8.82;;;5.90;99.90;;;;;;5075166;28;20044;-65
2022/12/05 06:30:57;;;;;;;17.40;7.47;;;5.90;99.90;;;;;;5073986;28;20395;-65
2022/12/05 06:33:23;;;;;;;18.50;8.25;;;5.90;99.90;;;;;;5059343;28;20040;-65
2022/12/05 06:35:59;;;;;;;15.32;8.25;;;5.90;99.90;;;;;;5079604;28;20051;-65
2022/12/05 06:38:25;;;;;;;16.67;8.30;;;6.00;99.90;;;;;;5081083;28;20036;-65
2022/12/05 06:40:51;;;;;;;15.23;7.93;;;5.80;99.90;;;;;;5076168;28;20425;-65
2022/12/05 06:43:16;;;;;;;15.73;7.95;;;5.90;99.90;;;;;;5080583;28;20048;-65
2022/12/05 06:45:42;;;;;;;17.67;7.93;;;5.80;99.90;;;;;;5076124;28;20425;-65
2022/12/05 06:48:07;;;;;;;15.50;8.23;;;5.80;99.90;;;;;;5072601;28;20599;-66
2022/12/05 06:50:33;;;;;;;16.40;8.75;;;5.90;99.90;;;;;;5078864;28;20093;-65
2022/12/05 06:52:59;;;;;;;17.23;8.55;;;5.80;99.90;;;;;;5082385;28;20127;-65
2022/12/05 06:55:24;;;;;;;19.30;8.45;;;5.90;99.90;;;;;;5081138;28;20128;-65
2022/12/05 06:57:50;;;;;;;14.48;8.30;;;5.90;99.90;;;;;;5079810;28;20490;-65
2022/12/05 07:03:00;;;;;;;19.55;7.93;;;5.80;99.90;;;;;;5064999;28;20106;-64
2022/12/05 07:05:26;;;;;;;15.65;7.85;;;5.80;99.90;;;;;;5076570;28;20105;-65
2022/12/05 07:07:52;;;;;;;16.33;8.00;;;5.90;99.90;;;;;;5079753;28;20052;-65
2022/12/05 07:10:17;;;;;;;18.05;8.25;;;5.80;99.90;;;;;;5059428;28;20040;-65
2022/12/05 07:12:43;;;;;;;16.27;9.27;;;5.80;99.90;;;;;;5056305;28;20051;-65
2022/12/05 07:15:09;;;;;;;16.70;7.97;;;5.80;99.90;;;;;;5080756;28;20039;-64
2022/12/05 07:17:37;;;;;;;18.23;8.48;;;5.80;99.90;;;;;;5061048;28;20102;-64
2022/12/05 07:20:07;;;;;;;16.42;8.68;;;5.80;99.90;;;;;;5073124;28;20058;-64
2022/12/05 07:22:35;;;;;;;16.75;7.30;;;5.80;99.90;;;;;;5077930;28;20028;-65
2022/12/05 07:25:01;;;;;;;17.70;8.55;;;5.90;99.90;;;;;;5060233;28;20044;-65
2022/12/05 07:27:27;;;;;;;16.20;8.50;;;5.90;99.90;;;;;;5079606;28;20084;-65
2022/12/05 07:29:52;;;;;;;22.85;8.77;;;5.90;99.90;;;;;;5082284;28;20528;-65
2022/12/05 07:32:18;;;;;;;17.80;8.13;;;5.90;99.90;;;;;;5056112;28;20143;-65
2022/12/05 07:34:43;;;;;;;17.60;7.47;;;5.80;99.90;;;;;;5082206;28;20060;-65
2022/12/05 07:37:09;;;;;;;17.40;8.02;;;5.80;99.90;;;;;;5057841;28;20139;-65
2022/12/05 07:39:35;;;;;;;16.23;8.18;;;5.80;99.90;;;;;;5080758;28;20032;-65
2022/12/05 07:42:00;;;;;;;16.52;7.90;;;5.90;99.90;;;;;;5080014;28;20040;-65
2022/12/05 07:44:26;;;;;;;22.90;7.47;;;5.80;99.90;;;;;;5081351;28;20044;-65
2022/12/05 07:46:51;;;;;;;20.63;7.60;;;5.90;99.90;;;;;;5081734;28;20537;-65
2022/12/05 07:49:17;;;;;;;20.33;8.13;;;5.90;99.90;;;;;;5067998;28;20458;-65
2022/12/05 07:51:43;;;;;;;21.58;8.55;;;5.90;99.90;;;;;;5067450;28;20051;-65
2022/12/05 07:54:08;;;;;;;24.83;8.18;;;5.80;99.90;;;;;;5047151;28;20048;-67
2022/12/05 07:56:34;;;;;;;19.30;7.68;;;5.80;99.90;;;;;;5065405;28;20361;-66
2022/12/05 07:58:59;;;;;;;21.30;7.45;;;5.80;99.90;;;;;;5067923;28;20043;-67
2022/12/05 08:01:28;;;;;;;17.63;7.68;;;5.90;99.90;;;;;;5066631;28;20048;-66
2022/12/05 08:03:56;;;;;;;19.75;6.90;;;5.90;99.90;;;;;;5051296;28;20692;-67
2022/12/05 08:06:27;;;;;;;13.43;6.63;;;5.80;99.90;;;;;;5044469;28;20153;-67
2022/12/05 08:08:53;;;;;;;21.08;6.70;;;5.90;99.90;;;;;;5066499;28;20044;-66
2022/12/05 08:11:21;;;;;;;15.02;6.38;;;5.80;99.90;;;;;;5062591;28;20094;-66
2022/12/05 08:13:48;;;;;;;14.00;6.63;;;5.90;99.90;;;;;;5066286;28;20154;-66
2022/12/05 08:16:18;;;;;;;23.67;6.85;;;5.90;99.90;;;;;;5069093;28;20055;-66
2022/12/05 08:18:43;;;;;;;15.13;7.40;;;6.00;99.90;;;;;;5063469;28;20102;-67
2022/12/05 08:21:13;;;;;;;18.38;6.43;;;6.00;99.90;;;;;;5045959;28;20041;-67
2022/12/05 08:23:39;;;;;;;16.20;7.40;;;5.90;99.90;;;;;;5072124;28;20459;-66
2022/12/05 08:26:16;;;;;;;18.60;7.70;;;5.90;99.90;;;;;;5062882;28;20048;-67
2022/12/05 08:28:43;;;;;;;20.73;7.25;;;5.90;99.90;;;;;;5065845;28;20052;-67
2022/12/05 08:31:14;;;;;;;14.32;7.07;;;6.00;99.90;;;;;;5060827;28;20048;-66
2022/12/05 08:33:40;;;;;;;17.20;6.70;;;5.90;99.90;;;;;;5062182;28;20507;-66
2022/12/05 08:36:08;;;;;;;17.95;7.25;;;5.90;99.90;;;;;;5062079;28;20132;-66
2022/12/05 08:38:35;;;;;;;16.73;6.88;;;6.00;99.90;;;;;;5067083;28;20113;-66
2022/12/05 08:41:02;;;;;;;16.25;6.60;;;6.10;99.90;;;;;;5066695;28;20547;-66
2022/12/05 08:43:28;;;;;;;17.27;6.93;;;6.00;99.90;;;;;;5044600;28;20040;-65
2022/12/05 08:45:54;;;;;;;23.80;7.68;;;6.00;99.90;;;;;;5065914;28;20040;-65
2022/12/05 08:48:21;;;;;;;16.50;6.70;;;6.00;99.90;;;;;;5073547;28;20068;-64
2022/12/05 08:50:46;;;;;;;17.42;6.78;;;6.00;99.90;;;;;;5080948;28;20085;-64
2022/12/05 08:53:12;;;;;;;16.83;6.55;;;6.00;99.90;;;;;;5078393;28;20044;-64
2022/12/05 08:55:38;;;;;;;14.60;6.63;;;6.10;99.90;;;;;;5082985;28;20398;-64
2022/12/05 08:58:04;;;;;;;15.48;7.53;;;6.00;99.90;;;;;;5081000;28;20040;-65
2022/12/05 09:00:30;;;;;;;17.48;7.30;;;6.00;99.90;;;;;;5081161;28;20040;-65
2022/12/05 09:02:56;;;;;;;20.13;9.90;;;6.10;99.90;;;;;;5059798;28;20287;-65
2022/12/05 09:05:22;;;;;;;13.55;6.60;;;6.10;99.90;;;;;;5077677;28;20047;-65
2022/12/05 09:07:48;;;;;;;16.65;7.20;;;6.00;99.90;;;;;;5084387;28;20502;-65
2022/12/05 09:10:14;;;;;;;18.10;7.18;;;6.20;99.90;;;;;;5075840;28;20055;-65
2022/12/05 09:12:39;;;;;;;17.23;7.05;;;6.10;99.90;;;;;;5063212;28;20036;-64
2022/12/05 09:15:06;;;;;;;19.88;7.00;;;6.10;99.90;;;;;;5080335;28;20044;-64
2022/12/05 09:17:32;;;;;;;16.10;7.05;;;6.10;99.90;;;;;;5061044;28;20064;-65
2022/12/05 09:19:58;;;;;;;15.52;6.00;;;6.10;99.90;;;;;;5079167;28;20040;-65
2022/12/05 09:22:24;;;;;;;14.90;6.68;;;6.00;99.90;;;;;;5060931;28;20055;-65
2022/12/05 09:24:49;;;;;;;15.38;6.80;;;6.10;99.90;;;;;;5083510;28;20465;-65
2022/12/05 09:27:15;;;;;;;22.98;6.60;;;6.20;99.90;;;;;;5061862;28;20044;-65
2022/12/05 09:29:41;;;;;;;18.48;7.22;;;6.10;99.90;;;;;;5081075;28;20063;-65
2022/12/05 09:32:07;;;;;;;17.60;6.75;;;6.10;99.90;;;;;;5076695;28;20048;-65
2022/12/05 09:34:33;;;;;;;17.30;6.97;;;6.10;99.90;;;;;;5081105;28;20129;-65
2022/12/05 09:37:00;;;;;;;18.33;7.03;;;6.10;99.90;;;;;;5057846;28;20761;-65
2022/12/05 09:39:27;;;;;;;16.08;6.38;;;6.10;99.90;;;;;;5080111;28;20036;-65
2022/12/05 09:42:17;;;;;;;15.07;7.18;;;6.10;99.90;;;;;;5080425;28;20087;-65
2022/12/05 09:44:57;;;;;;;15.70;6.55;;;6.00;99.90;;;;;;5084468;28;20036;-65
2022/12/05 09:47:44;;;;;;;18.30;7.25;;;6.10;99.90;;;;;;5081276;28;20048;-65
2022/12/05 09:50:39;;;;;;;18.08;7.88;;;6.20;99.90;;;;;;5065150;28;20102;-66
2022/12/05 09:53:08;;;;;;;14.23;6.50;;;6.10;99.90;;;;;;5081594;28;20376;-64
2022/12/05 09:55:50;;;;;;;19.73;8.48;;;6.20;99.90;;;;;;5060562;28;20052;-64
2022/12/05 09:58:21;;;;;;;23.85;8.13;;;6.20;99.90;;;;;;5077817;28;20502;-64
2022/12/05 10:00:50;;;;;;;19.17;7.97;;;6.20;99.90;;;;;;5061049;28;20115;-64
2022/12/05 10:03:19;;;;;;;14.98;7.03;;;6.10;99.90;;;;;;5060043;28;20040;-64
2022/12/05 10:06:11;;;;;;;19.63;8.35;;;6.20;99.90;;;;;;5057455;28;20079;-64
2022/12/05 10:08:55;;;;;;;22.83;7.17;;;6.20;99.90;;;;;;5019058;28;20039;-64
2022/12/05 10:11:34;;;;;;;13.70;8.40;;;6.20;99.90;;;;;;5052725;28;20422;-64
2022/12/05 10:14:35;;;;;;;22.83;9.32;;;6.30;99.90;;;;;;5079840;28;20531;-66
2022/12/05 10:17:31;;;;;;;21.00;7.95;;;6.30;99.90;;;;;;5061576;28;20483;-66
2022/12/05 10:20:01;;;;;;;19.85;8.00;;;6.30;99.90;;;;;;5078064;28;20040;-64
2022/12/05 10:22:42;;;;;;;23.35;7.88;;;6.30;99.90;;;;;;5081909;28;20052;-64
2022/12/05 10:25:11;;;;;;;22.35;8.18;;;6.40;99.90;;;;;;5080313;28;20125;-64
2022/12/05 10:27:41;;;;;;;17.50;7.22;;;6.40;99.90;;;;;;5060163;28;20122;-64
2022/12/05 10:30:18;;;;;;;17.35;8.90;;;6.40;99.90;;;;;;5080271;28;20074;-64
2022/12/05 10:32:49;;;;;;;18.45;8.13;;;6.40;99.90;;;;;;5079397;28;20062;-64
2022/12/05 10:35:14;;;;;;;17.17;7.18;;;6.30;99.90;;;;;;5078350;28;20453;-65
2022/12/05 10:37:45;;;;;;;15.05;7.32;;;6.30;99.90;;;;;;5058670;28;20119;-65
2022/12/05 10:40:11;;;;;;;19.40;8.00;;;6.40;99.90;;;;;;5084654;28;20510;-65
2022/12/05 10:42:37;;;;;;;19.73;7.90;;;6.30;99.90;;;;;;5053617;28;20071;-65
2022/12/05 10:45:13;;;;;;;23.52;7.78;;;6.40;99.90;;;;;;5061026;28;20053;-66
2022/12/05 10:47:39;;;;;;;15.85;7.35;;;6.40;99.90;;;;;;5082158;28;20109;-66
2022/12/05 10:50:18;;;;;;;17.15;7.68;;;6.30;99.90;;;;;;5053435;28;20037;-65
2022/12/05 10:52:44;;;;;;;17.92;6.60;;;6.40;99.90;;;;;;5081440;28;20032;-66
2022/12/05 10:55:15;;;;;;;16.58;7.57;;;6.40;99.90;;;;;;5053486;28;20190;-66
2022/12/05 10:57:41;;;;;;;19.30;8.23;;;6.40;99.90;;;;;;5084471;28;20697;-65
2022/12/05 11:00:14;;;;;;;19.70;7.68;;;6.30;99.90;;;;;;5058384;28;20170;-66
2022/12/05 11:02:41;;;;;;;20.05;8.23;;;6.40;99.90;;;;;;5054281;28;20048;-65
2022/12/05 11:05:07;;;;;;;18.63;7.20;;;6.40;99.90;;;;;;5053699;28;20381;-65
2022/12/05 11:07:41;;;;;;;16.40;7.10;;;6.30;99.90;;;;;;5059302;28;20044;-65
2022/12/05 11:10:35;;;;;;;16.33;6.97;;;6.50;99.90;;;;;;5054154;28;20490;-66
2022/12/05 11:13:12;;;;;;;17.45;6.97;;;6.40;99.90;;;;;;5046703;28;20043;-66
2022/12/05 11:15:45;;;;;;;16.60;7.10;;;6.50;99.90;;;;;;5055746;28;20522;-67
2022/12/05 11:18:24;;;;;;;21.33;7.60;;;6.40;99.90;;;;;;5082918;28;20059;-65
2022/12/05 11:20:50;;;;;;;23.40;7.65;;;6.40;99.90;;;;;;5084311;28;20040;-65
2022/12/05 11:23:27;;;;;;;17.70;8.35;;;6.40;99.90;;;;;;5081243;28;20052;-65
2022/12/05 11:25:55;;;;;;;20.60;7.72;;;6.40;99.90;;;;;;5059476;28;20032;-65
2022/12/05 11:28:20;;;;;;;16.38;6.80;;;6.40;99.90;;;;;;5079504;28;20670;-65
2022/12/05 11:30:58;;;;;;;20.08;8.57;;;6.40;99.90;;;;;;5061822;28;20143;-65
2022/12/05 11:33:26;;;;;;;23.77;7.63;;;6.40;99.90;;;;;;5083224;28;20047;-65
2022/12/05 11:35:56;;;;;;;18.90;8.25;;;6.40;99.90;;;;;;5079972;28;20513;-65
2022/12/05 11:38:26;;;;;;;19.27;7.28;;;6.40;99.90;;;;;;5078730;28;20494;-65
2022/12/05 11:41:22;;;;;;;19.63;7.82;;;6.40;99.90;;;;;;5060888;28;20040;-65
2022/12/05 11:43:56;;;;;;;22.20;7.32;;;6.40;99.90;;;;;;5078512;28;20056;-66
2022/12/05 11:46:35;;;;;;;18.10;6.97;;;6.40;99.90;;;;;;5055727;28;20121;-65
2022/12/05 11:49:31;;;;;;;18.15;7.18;;;6.30;99.90;;;;;;5079715;28;20078;-65
2022/12/05 11:52:08;;;;;;;22.55;7.22;;;6.30;99.90;;;;;;5076978;28;20109;-65
2022/12/05 11:55:02;;;;;;;18.50;7.38;;;6.30;99.90;;;;;;5079975;28;20044;-65
2022/12/05 11:57:53;;;;;;;17.70;7.95;;;6.40;99.90;;;;;;5075725;28;20470;-65
2022/12/05 12:00:23;;;;;;;18.50;6.72;;;6.30;99.90;;;;;;5052836;28;20059;-65
2022/12/05 12:03:14;;;;;;;19.30;7.15;;;6.30;99.90;;;;;;5083377;28;20055;-66
2022/12/05 12:06:18;;;;;;;22.17;7.38;;;6.30;99.90;;;;;;5075244;28;20047;-65
2022/12/05 12:08:53;;;;;;;19.27;6.68;;;6.40;99.90;;;;;;5072213;28;20048;-66
2022/12/05 12:12:04;;;;;;;23.92;7.38;;;6.30;99.90;;;;;;5076275;28;20052;-66
2022/12/05 12:14:49;;;;;;;16.95;7.47;;;6.20;99.90;;;;;;5042629;28;20119;-66
2022/12/05 12:17:39;;;;;;;15.80;5.93;;;6.30;99.90;;;;;;5076071;28;20032;-67
2022/12/05 12:20:08;;;;;;;16.90;7.43;;;6.20;99.90;;;;;;5075605;28;20048;-65
2022/12/05 12:23:00;;;;;;;23.90;6.85;;;6.10;99.90;;;;;;5081173;28;20051;-67
2022/12/05 12:25:37;;;;;;;23.55;7.05;;;6.20;99.90;;;;;;5081176;28;20098;-66
2022/12/05 12:28:24;;;;;;;18.23;6.70;;;6.20;99.90;;;;;;5080028;28;20070;-65
2022/12/05 12:31:07;;;;;;;15.20;6.00;;;6.10;99.90;;;;;;5083443;28;20047;-66
2022/12/05 12:34:04;;;;;;;19.48;6.75;;;6.20;99.90;;;;;;5081568;28;20047;-66
2022/12/05 12:36:44;;;;;;;16.52;6.50;;;6.10;99.90;;;;;;5074942;28;20503;-66
2022/12/05 12:39:36;;;;;;;16.90;6.47;;;6.10;99.90;;;;;;5075712;28;20046;-66
2022/12/05 12:42:24;;;;;;;19.35;6.35;;;6.20;99.90;;;;;;5076921;28;20379;-66
2022/12/05 12:45:05;;;;;;;18.98;6.65;;;6.10;99.90;;;;;;5077156;28;20040;-66
2022/12/05 12:47:48;;;;;;;18.77;6.55;;;6.20;99.90;;;;;;5077864;28;20052;-65
2022/12/05 12:50:22;;;;;;;16.77;6.72;;;6.20;99.90;;;;;;5080741;28;20047;-66
2022/12/05 12:53:05;;;;;;;21.45;7.00;;;6.10;99.90;;;;;;5084097;28;20403;-67
2022/12/05 12:55:39;;;;;;;22.42;6.78;;;6.20;99.90;;;;;;5079944;28;20040;-66
2022/12/05 12:58:14;;;;;;;20.10;6.13;;;6.20;99.90;;;;;;5075425;28;20041;-66
2022/12/05 13:00:58;;;;;;;16.00;6.82;;;6.20;99.90;;;;;;5076074;28;20048;-66
2022/12/05 13:03:35;;;;;;;16.65;6.82;;;6.20;99.90;;;;;;5077365;28;20083;-66
2022/12/05 13:06:09;;;;;;;18.23;6.40;;;6.10;99.90;;;;;;5080565;28;20399;-66
2022/12/05 13:08:49;;;;;;;17.90;7.20;;;6.20;99.90;;;;;;5081458;28;20399;-66
2022/12/05 13:11:17;;;;;;;19.33;6.07;;;6.10;99.90;;;;;;5082580;28;20560;-66
2022/12/05 13:13:47;;;;;;;14.88;6.45;;;6.10;99.90;;;;;;5081334;28;20529;-66
2022/12/05 13:16:29;;;;;;;11.98;5.57;;;6.10;99.90;;;;;;5077893;28;20044;-66